Airports

 


Airport Name Latest METAR Visual Conditions
Cincinnati/Northern Kentucky International (CVG) KCVG 210852Z 18011KT 10SM OVC230 17/14 A3010 RMK AO2 SLP188 T01720144 50005 VFR
John Glenn Columbus International (CMH) KCMH 210924Z 21003KT 5SM BR FEW002 SCT130 OVC250 14/14 A3010 RMK AO2 T01390139 $ MVFR
Yeager (CRW) KCRW 210854Z 00000KT 10SM FEW001 13/13 A3016 RMK AO2 SLP207 VLY FG T01280128 53002 $ VFR
James M Cox Dayton International (DAY) KDAY 210856Z 21010KT 10SM FEW002 BKN095 OVC140 17/16 A3008 RMK AO2 RAB46E54 SLP184 P0000 60000 T01670161 57002 VFR
Evansville Regional (EVV) KEVV 210854Z AUTO 22005KT 10SM CLR 17/14 A3009 RMK AO2 SLP188 T01670144 53009 VFR
Indianapolis International (IND) KIND 210854Z 24011G18KT 4SM TSRA BR SCT025 BKN046CB OVC060 17/16 A3008 RMK AO2 LTG DSNT ALQDS RAE21B27 TSE0758E28B50 SLP184 OCNL LTGIC OHD TS OHD MOV E P0022 60046 T01720161 53020 $ MVFR
Blue Grass (LEX) KLEX 202254Z 16007KT 10SM SCT050 BKN070 21/17 A3014 RMK AO2 SLP201 T02060167 VFR
Louisville Muhammad Ali International (SDF) KSDF 210856Z 18008KT 10SM SCT250 19/16 A3011 RMK AO2 SLP192 T01940156 51009 VFR
Anderson Municipal-Darlington Field (AID) KAID 210935Z AUTO 22008G16KT 5SM TSRA OVC005 17/16 A3008 RMK AO2 LTG DSNT ALQDS P0018 T01670164 IFR
Columbus Municipal (BAK) KBAK 210145Z 14004KT 3SM BR OVC003 12/11 A3008 RMK LAST LIFR
Monroe County (BMG) KBMG 210916Z AUTO 29006KT 10SM BKN008 OVC016 20/17 A3010 RMK AO2 LTG DSNT N RAE01 P0000 T02000172 IFR
Wright-Patterson Air Force Base (FFO) KFFO 210856Z AUTO 19010KT 10SM FEW065 SCT110 18/16 A3007 RMK AO2 SLP185 T01760159 55002 VFR
Godman Army Airfield (FTK) KFTK 210936Z AUTO 19004KT 10SM CLR 16/16 A3015 RMK AO2 SLP210 VFR
Himsel Army Airfield (HBE) No weather for this Airport Unknown
Tri-State/Milton J Ferguson Field (HTS) KHTS 210851Z 22003KT 8SM CLR 15/14 A3015 RMK AO2 SLP205 T01500139 53005 VFR
Terre Haute Regional (HUF) KHUF 210933Z AUTO 27005KT 9SM -RA BKN009 BKN040 OVC110 17/16 A3008 RMK AO2 LTG DSNT SW TSE06 P0004 T01720156 IFR
Wilmington Air Park (ILN) KILN 210854Z AUTO 20009KT 10SM CLR 16/14 A3010 RMK AO2 SLP197 T01610144 56001 VFR
Rickenbacker International (LCK) KLCK 210855Z AUTO 17006KT 7SM SCT065 14/14 A3011 RMK AO2 T01390139 VFR
Bowman Field (LOU) KLOU 210853Z AUTO 16006KT 10SM CLR 17/15 A3011 RMK AO2 SLP195 T01720150 51010 VFR
Cincinnati Municipal Airport Lunken Field (LUK) KLUK 210909Z AUTO 23003KT 7SM R21L/4500VP6000FT CLR 13/13 A3012 RMK AO2 T01330128 VFR
Delaware County Regional (MIE) KMIE 210931Z AUTO 23012G21KT 3SM RA BR BKN008 BKN021 OVC070 19/17 A3007 RMK AO2 LTG DSNT ALQDS P0012 T01890167 IFR
Ohio State University (OSU) KOSU 210853Z AUTO 17008KT 6SM BR SCT002 15/15 A3009 RMK AO2 SLP189 T01500150 53000 VFR
Owensboro-Daviess County Regional (OWB) KOWB 210856Z AUTO 17009KT 10SM CLR 17/17 A3010 RMK AO2 SLP193 T01720167 53007 VFR
Mid-Ohio Valley Regional (PKB) KPKB 210925Z AUTO 00000KT 1 1/4SM BR SCT002 12/11 A3015 RMK AO2 T01170106 IFR
Bolton Field (TZR) KTZR 210935Z AUTO 19005KT 7SM SCT060 15/15 A3011 RMK AO2 LTG DSNT W AND NW T01450145 VFR
Middlesboro-Bell County (1A6) K1A6 210935Z AUTO 00000KT 1/4SM FG OVC002 11/11 A3025 RMK AO2 T01050105 LIFR
Georgetown-Scott County Regional (27K) K27K 210935Z AUTO 21004KT 10SM CLR 16/13 A3017 RMK AO1 VFR
Madisonville Regional (2I0) K2I0 210935Z AUTO 19006KT 10SM CLR 19/16 A3012 RMK AO2 T01850157 VFR
Mason County (3I2) K3I2 210935Z AUTO 00000KT 1/2SM FG OVC001 12/12 A3018 RMK AO2 T01230123 LIFR
Knox County (4I3) K4I3 210935Z AUTO 18005KT 7SM CLR 15/14 A3012 RMK AO2 LTG DSNT W VFR
Lebanon Springfield-George Hoerter Field (6I2) K6I2 210935Z AUTO 17008KT 10SM CLR 17/17 A3017 RMK AO2 VFR
Logan County (6L4) K6L4 210935Z AUTO 10003KT 10SM CLR 16/14 A3021 RMK AO2 VFR
Livingston Municipal (8A3) K8A3 210935Z AUTO 20004KT 10SM SCT043 17/14 A3020 RMK A01 VFR
Kee Field (I16) KI16 210935Z AUTO 2SM BR SCT001 11/10 A3028 RMK AO2 T01080101 IFR
Greene County-Lewis A Jackson Regional (I19) KI19 210935Z 20010KT 10SM SCT095 A3012 RMK AO2 LTG DSNT W AND NW VFR
Fayette County (I23) KI23 210935Z AUTO 19007KT 10SM CLR 15/14 A3010 RMK AO1 VFR
Tucker-Guthrie Memorial (I35) KI35 210935Z AUTO 00000KT 1/4SM OVC001 11/11 A3025 RMK AO2 T01140114 LIFR
James A Rhodes (I43) KI43 210935Z AUTO 00000KT 1/2SM FG OVC002 12/12 A3016 RMK AO2 LIFR
Cincinnati West (I67) KI67 210935Z AUTO 00000KT 7SM CLR 13/12 A3011 RMK AO1 P0002 VFR
Clermont County (I69) KI69 210935Z AUTO 21008KT 10SM CLR 18/15 A3013 RMK AO2 T01750152 VFR
Grimes Field (I74) KI74 210935Z AUTO 21005KT 10SM SCT060 SCT065 BKN080 16/16 A3009 RMK AO2 VFR
Hancock Co-Ron Lewis Field (KY8) KKY8 210935Z AUTO 18006KT 10SM 18/18 A3012 RMK A01 VFR
Brazil Clay County (0I2) No weather for this Airport Unknown
Cynthiana-Harrison County (0I8) No weather for this Airport Unknown
Holmes County (10G) No weather for this Airport Unknown
Ona Airpark (12V) No weather for this Airport Unknown
Mc Creary County (18I) No weather for this Airport Unknown
Casey Municipal (1H8) No weather for this Airport Unknown
Jamestown Municipal (2A1) No weather for this Airport Unknown
Hendricks County-Gordon Graham Fld (2R2) No weather for this Airport Unknown
Sky King (3I3) No weather for this Airport Unknown
Dayton-Phillipsburg (3I7) No weather for this Airport Unknown
Morrow County (4I9) No weather for this Airport Unknown
Sheridan (5I4) No weather for this Airport Unknown
Indianapolis Downtown (8A4) No weather for this Airport Unknown
Piqua Airport- Hartzell Field (I17) No weather for this Airport Unknown
Jackson County (I18) No weather for this Airport Unknown
Randolph County (I22) No weather for this Airport Unknown
Greensburg Municipalcipal (I34) No weather for this Airport Unknown
Richard Downing (I40) No weather for this Airport Unknown
Clinton Field (I66) No weather for this Airport Unknown
Warren County/John Lane Field (I68) No weather for this Airport Unknown
Perry County (I86) No weather for this Airport Unknown
Breckinridge County (I93) No weather for this Airport Unknown
Hardin County (I95) No weather for this Airport Unknown
Russell County (K24) No weather for this Airport Unknown
Gene Snyder (K62) No weather for this Airport Unknown
Leitchfield-Grayson Co (M20) No weather for this Airport Unknown
Taylor County (AAS) KAAS 210935Z AUTO 16003KT 10SM CLR 15/15 A3022 RMK AO1 VFR
Mount Carmel Municipal (AJG) KAJG 210935Z AUTO 35008KT 5SM VCTS BR BKN009 OVC013 18/16 A3012 RMK AO2 LTG DSNT N AND NE T01750164 IFR
Alexander Salamon (AMT) No weather for this Airport Unknown
Lima Allen County (AOH) No weather for this Airport Unknown
Neil Armstrong (AXV) KAXV 210935Z AUTO 19013G20KT 5SM +TSRA SCT020 BKN048 OVC060 16/16 A3005 RMK AO2 LTG DSNT ALQDS MVFR
Virgil I Grissom Municipal (BFR) No weather for this Airport Unknown
Raleigh County Memorial (BKW) KBKW 210851Z AUTO 13007KT 10SM CLR 13/11 A3024 RMK AO2 SLP217 T01330106 51006 TSNO VFR
Mercer County (BLF) KBLF 210852Z AUTO 23006KT 10SM CLR 15/08 A3027 RMK AO2 SLP223 T01500078 53009 VFR
Samuels Field (BRY) KBRY 210935Z AUTO 00000KT 10SM CLR 13/13 A3014 RMK AO1 VFR
Williamsburg-Whitley County (BYL) KBYL 210935Z AUTO 00000KT 2 1/2SM CLR 11/11 A3022 RMK AO1 IFR
Mettel Field (CEV) No weather for this Airport Unknown
Crawfordsville Regional (CFJ) KCFJ 210935Z AUTO 24006KT 10SM -RA BKN007 BKN010 OVC024 A3008 RMK AO2 LTG DSNT NE E AND SW P0002 IFR
Wendell H Ford (CPF) No weather for this Airport Unknown
Lakefield (CQA) No weather for this Airport Unknown
Carmi Municipal (CUL) No weather for this Airport Unknown
Pickaway County Memorial (CYO) No weather for this Airport Unknown
Daviess County (DCY) KDCY 210935Z AUTO 24003KT 10SM BKN020 BKN040 OVC046 19/19 A3011 RMK AO2 LTG DSNT NW T01860185 MVFR
Delaware Municipal - Jim Moore Field (DLZ) No weather for this Airport Unknown
Stuart Powell Field (DVK) KDVK 210935Z AUTO 21005KT 10SM CLR 15/13 A3019 RMK AO2 VFR
Ashland Regional (DWU) No weather for this Airport Unknown
Appalachian Regional (EBD) No weather for this Airport Unknown
Bellefontaine Regional (EDJ) No weather for this Airport Unknown
Henderson City-County (EHR) KEHR 210856Z AUTO 22007KT 10SM CLR 18/16 A3009 RMK AO2 SLP189 60001 T01830161 53007 VFR
Wayne County (EKQ) No weather for this Airport Unknown
Addington Field (EKX) No weather for this Airport Unknown
Pike County (EOP) No weather for this Airport Unknown
Eagle Creek Airpark (EYE) No weather for this Airport Unknown
Capital City (FFT) No weather for this Airport Unknown
Fleming-Mason (FGX) KFGX 210935Z AUTO 21007KT 10SM CLR 16/15 A3017 RMK AO2 T01550147 VFR
French Lick Municipal (FRH) No weather for this Airport Unknown
Gallia-Meigs Regional (GAS) No weather for this Airport Unknown
Brown County (GEO) No weather for this Airport Unknown
Shelbyville Municipal (GEZ) No weather for this Airport Unknown
Putnam County Regional (GPC) KGPC 210935Z AUTO 10SM -RA OVC007 16/16 A3008 RMK AO2 P0012 TSNO T01600155 IFR
Butler Co Regional-Hogan Field (HAO) No weather for this Airport Unknown
Indy South Greenwood (HFY) KHFY 210935Z AUTO 26004KT 4SM SCT022 BKN041 OVC080 17/17 A3011 RMK AO2 T01650165 MVFR
Huntingburg (HNB) KHNB 210856Z AUTO 20005KT 10SM CLR 18/17 A3011 RMK AO2 SLP194 T01830167 53012 VFR
Highland County (HOC) No weather for this Airport Unknown
Madison Municipal (IMS) No weather for this Airport Unknown
Mount Sterling-Montgomery County (IOB) KIOB 210935Z AUTO 22006KT 10SM CLR 16/14 A3019 RMK AO2 VFR
Julian Carroll (JKL) No weather for this Airport Unknown
Ohio County (JQD) No weather for this Airport Unknown
Clark Regional (JVY) KJVY 180255Z AUTO 14004KT 10SM CLR 09/01 A3017 RMK AO2 T00870006 VFR
Fairfield County (LHQ) KLHQ 210853Z AUTO 13008KT 9SM FEW060 15/14 A3012 RMK AO2 SLP199 T01500139 53004 VFR
Lonesome Pine (LNP) No weather for this Airport Unknown
London-Corbin Arpt-Magee Field (LOZ) KLOZ 210941Z AUTO 13004KT 1 1/2SM BR SCT003 10/09 A3021 RMK AO2 T01000094 IFR
Lawrenceville-Vincennes International (LWV) No weather for this Airport Unknown
Dayton-Wright Brothers (MGY) KMGY 210853Z AUTO 19009KT 10SM CLR 17/15 A3008 RMK AO2 SLP185 T01670150 55000 VFR
Indianapolis Regional (MQJ) No weather for this Airport Unknown
Union County (MRT) KMRT 210935Z AUTO 21010KT 10SM BKN060 15/15 A3009 RMK AO2 T01530145 VFR
Middletown Regional/Hook Field (MWO) KMWO 210935Z AUTO 25006KT 10SM CLR 16/16 A3012 RMK AO2 LTG DSNT N AND W T01570156 VFR
North Vernon (OVO) No weather for this Airport Unknown
Miami University (OXD) KOXD 210935Z AUTO 20008KT 10SM SCT070 BKN090 16/16 A3011 RMK AO2 LTG DSNT N AND NW T01570157 VFR
Pike County-Hatcher Field (PBX) KPBX 210935Z AUTO 16003KT 10SM CLR 16/15 A3021 RMK AO2 T01600150 VFR
Greater Portsmouth Regional (PMH) KPMH 210859Z AUTO 00000KT 1/4SM FG OVC002 A3017 RMK AO2 LTG DSNT W P0001 LIFR
Edgar County (PRG) No weather for this Airport Unknown
Central Kentucky Regional (RGA) KRGA 210935Z AUTO 19006KT 10SM CLR 16/14 A3018 RMK AO2 VFR
Richmond Municipal (RID) KRID 210935Z AUTO 19007KT 10SM SCT060 BKN070 BKN090 15/15 A3011 RMK AO2 VFR
Crawford Co (RSV) KRSV 210935Z AUTO 19004KT 7SM OVC021 16/16 A3011 RMK AO2 LTG DSNT N AND NE T01600160 MVFR
Ross County (RZT) KRZT 210935Z AUTO 18007KT 1/4SM OVC001 13/13 A3012 RMK AO2 LTG DSNT NW PWINO LIFR
Sidney Municipal (SCA) No weather for this Airport Unknown
Scott Municipal (SCX) KSCX 210935Z AUTO 00000KT 7SM CLR 11/11 A3022 RMK A01 VFR
Freeman Municipal (SER) No weather for this Airport Unknown
Springfield-Beckley Municipal (SGH) No weather for this Airport Unknown
Sullivan County (SIV) No weather for this Airport Unknown
Big Sandy Regional (SJS) KSJS 210935Z AUTO 00000KT 7SM CLR 15/15 A3020 RMK AO2 T01460146 PNO VFR
Lake Cumberland Regional (SME) No weather for this Airport Unknown
Summersville (SXL) No weather for this Airport Unknown
Morehead-Rowan County Clyde A Thomas Regional (SYM) KSYM 210935Z AUTO 16004KT 10SM CLR 15/14 A3018 RMK AO2 VFR
Perry County Municipal (TEL) No weather for this Airport Unknown
Sturgis Municipal (TWT) No weather for this Airport Unknown
Indianapolis Executive (TYQ) KTYQ 210935Z AUTO 23010G16KT 5SM /VCTSRA BKN009 BKN048 OVC090 16/16 A3007 RMK AO2 LTG DSNT ALQDS P0014 T01600157 IFR
Indianapolis Metropolitan (UMP) No weather for this Airport Unknown
Ohio University (UNI) KUNI 210935Z AUTO 00000KT 1/2SM FG OVC002 A3015 RMK AO2 LIFR
Boggs Field (USW) No weather for this Airport Unknown
New Castle Henry County Marlatt Field (UWL) No weather for this Airport Unknown
Madison County (UYF) KUYF 210935Z AUTO 19006KT 10SM SCT065 15/13 A3010 RMK AO2 LTG DSNT W AND NW VFR
Darke County (VES) KVES 210935Z AUTO 28005KT 10SM TS SCT028 BKN050 OVC065 15/15 A3009 RMK AO2 LTG DSNT ALQS P0002 VFR
Newark-Heath (VTA) KVTA 210942Z AUTO 00000KT 3/4SM BR VV005 13/12 A3010 RMK AO2 T01330122 LIFR
Zanesville Municipal (ZZV) KZZV 210853Z AUTO 21003KT 3SM BR CLR 14/14 A3013 RMK AO2 SLP203 T01440144 53001 MVFR
Red Stewart Airfield (40I) No weather for this Airport Unknown
Dahio Trotwood (I44) No weather for this Airport Unknown
Mad River Airpark (I54) No weather for this Airport Unknown
Moraine Air Park (I73) No weather for this Airport Unknown
Alexandria (I99) No weather for this Airport Unknown
Fry (0OH8) No weather for this Airport Unknown
Fayette County Memorial Hospital (11OH) No weather for this Airport Unknown
Uk Hospital (37KY) No weather for this Airport Unknown
Andy Barnhart Memorial (3OH0) No weather for this Airport Unknown
Medical Center Albany (45KY) No weather for this Airport Unknown
Westlake Regional Hospital (48KY) No weather for this Airport Unknown
Manchester Memorial Hospital (4KY2) No weather for this Airport Unknown
Bethesda Hospital Helistop (4OH2) No weather for this Airport Unknown
Appalachian Regional Hospital (51KY) No weather for this Airport Unknown
Bedford Medical Center (57IN) No weather for this Airport Unknown
Union Hospital (60II) No weather for this Airport Unknown
Skydive Greene County Inc (7OA7) No weather for this Airport Unknown
Methodist Hospital Of In Inc (81II) No weather for this Airport Unknown
Saint Joseph Hospital (88KY) No weather for this Airport Unknown
Riverside Methodist Hospital (9OI9) No weather for this Airport Unknown
Decatur County Memorial Hospital (IN35) No weather for this Airport Unknown
Reid Hospital (IN68) No weather for this Airport Unknown
Ball Memorial Hospital (IN74) No weather for this Airport Unknown
Iu Health Morgan (IN84) No weather for this Airport Unknown
Grant Medical Center (OH01) No weather for this Airport Unknown
Knox Communicipalty Hospital (OH04) No weather for this Airport Unknown
O'Bleness Memorial Hospital (OH23) No weather for this Airport Unknown
Schaney'S Lair (OH46) No weather for this Airport Unknown
Southern Ohio Regional Medical Center (OH62) No weather for this Airport Unknown
Troy Skypark (OH71) No weather for this Airport Unknown
Nationwide Children'S Hospital (OI95) No weather for this Airport Unknown